createdAt,value
2023-05-14T00:00:50.777Z,77.64
2023-05-14T00:03:19.283Z,77.84
2023-05-14T00:05:47.542Z,77.86
2023-05-14T00:08:15.837Z,78.47
2023-05-14T00:10:44.242Z,78.53
2023-05-14T00:13:16.833Z,78.17
2023-05-14T00:15:46.067Z,77.79
2023-05-14T00:18:15.614Z,77.50
2023-05-14T00:20:46.425Z,77.18
2023-05-14T00:23:16.158Z,76.97
2023-05-14T00:25:44.805Z,76.94
2023-05-14T00:28:14.797Z,76.66
2023-05-14T00:30:43.179Z,76.40
2023-05-14T00:33:13.979Z,76.06
2023-05-14T00:35:42.515Z,75.85
2023-05-14T00:38:17.148Z,75.67
2023-05-14T00:40:51.211Z,75.52
2023-05-14T00:43:21.194Z,75.26
2023-05-14T00:45:51.247Z,75.35
2023-05-14T00:48:20.120Z,75.43
2023-05-14T00:50:51.040Z,75.45
2023-05-14T00:53:20.227Z,75.79
2023-05-14T00:55:50.875Z,75.99
2023-05-14T00:58:20.922Z,75.97
2023-05-14T01:00:49.138Z,75.86
2023-05-14T01:03:17.482Z,75.76
2023-05-14T01:05:58.831Z,75.80
2023-05-14T01:08:35.050Z,76.03
2023-05-14T01:11:07.923Z,76.19
2023-05-14T01:13:42.791Z,76.76
2023-05-14T01:16:14.301Z,76.94
2023-05-14T01:18:45.898Z,77.04
2023-05-14T01:21:44.893Z,77.32
2023-05-14T01:24:14.415Z,77.42
2023-05-14T01:26:43.956Z,77.54
2023-05-14T01:29:17.444Z,77.90
2023-05-14T01:31:47.189Z,78.29
2023-05-14T01:34:16.616Z,78.43
2023-05-14T01:36:46.109Z,78.53
2023-05-14T01:39:15.318Z,79.01
2023-05-14T01:41:44.072Z,79.11
2023-05-14T01:44:13.149Z,79.48
2023-05-14T01:46:41.617Z,79.63
2023-05-14T01:49:10.967Z,79.79
2023-05-14T01:51:39.427Z,80.33
2023-05-14T01:54:10.090Z,80.88
2023-05-14T01:56:38.128Z,80.94
2023-05-14T01:59:06.540Z,81.10
2023-05-14T02:01:36.153Z,81.21
2023-05-14T02:04:05.969Z,81.35
2023-05-14T02:06:34.068Z,81.47
2023-05-14T02:09:03.272Z,81.68
2023-05-14T02:11:34.228Z,81.93
2023-05-14T02:14:02.514Z,82.14
2023-05-14T02:16:30.660Z,82.67
2023-05-14T02:19:01.373Z,83.25
2023-05-14T02:21:29.679Z,83.45
2023-05-14T02:23:58.357Z,83.59
2023-05-14T02:26:27.009Z,83.97
2023-05-14T02:28:58.179Z,84.21
2023-05-14T02:31:26.860Z,84.56
2023-05-14T02:33:55.694Z,84.79
2023-05-14T02:36:23.886Z,85.06
2023-05-14T02:38:51.924Z,85.33
2023-05-14T02:41:22.547Z,85.56
2023-05-14T02:43:52.500Z,85.56
2023-05-14T02:46:21.933Z,85.93
2023-05-14T02:48:50.240Z,86.13
2023-05-14T02:51:20.583Z,86.24
2023-05-14T02:53:52.624Z,86.30
2023-05-14T02:56:21.441Z,86.15
2023-05-14T02:58:49.944Z,86.19
2023-05-14T03:01:18.884Z,85.95
2023-05-14T03:03:49.745Z,86.05
2023-05-14T03:06:18.488Z,86.15
2023-05-14T03:08:46.882Z,86.37
2023-05-14T03:11:17.707Z,86.71
2023-05-14T03:13:46.748Z,86.69
2023-05-14T03:16:16.885Z,86.68
2023-05-14T03:18:47.674Z,86.54
2023-05-14T03:21:17.498Z,86.60
2023-05-14T03:23:46.535Z,86.65
2023-05-14T03:26:15.409Z,86.91
2023-05-14T03:28:43.725Z,87.00
2023-05-14T03:31:11.953Z,86.79
2023-05-14T03:33:41.597Z,86.48
2023-05-14T03:36:10.385Z,85.87
2023-05-14T03:38:39.954Z,85.38
2023-05-14T03:41:08.414Z,84.95
2023-05-14T03:43:39.168Z,84.57
2023-05-14T03:46:07.422Z,84.33
2023-05-14T03:48:36.210Z,84.29
2023-05-14T03:51:04.880Z,84.22
2023-05-14T03:53:33.309Z,84.25
2023-05-14T03:56:10.847Z,84.17
2023-05-14T03:58:39.701Z,83.97
2023-05-14T04:01:10.502Z,83.53
2023-05-14T04:03:38.600Z,82.95
2023-05-14T04:06:07.051Z,82.43
2023-05-14T04:08:35.325Z,81.86
2023-05-14T04:11:04.914Z,81.05
2023-05-14T04:13:36.651Z,79.92
2023-05-14T04:16:05.010Z,77.87
2023-05-14T04:18:35.257Z,75.47
2023-05-14T04:21:05.201Z,72.71
2023-05-14T04:23:33.507Z,70.28
2023-05-14T04:26:02.527Z,68.89
2023-05-14T04:28:32.251Z,67.18
2023-05-14T04:31:00.480Z,65.62
2023-05-14T04:33:28.514Z,64.06
2023-05-14T04:35:56.838Z,62.77
2023-05-14T04:38:25.530Z,62.20
2023-05-14T04:40:53.910Z,59.70
2023-05-14T04:43:23.057Z,58.25
2023-05-14T04:45:52.916Z,57.42
2023-05-14T04:48:21.663Z,55.68
2023-05-14T04:50:51.056Z,55.98
2023-05-14T04:53:19.636Z,54.24
2023-05-14T04:55:47.649Z,54.48
2023-05-14T04:58:16.052Z,54.50
2023-05-14T05:00:44.575Z,52.84
2023-05-14T05:03:14.759Z,52.32
2023-05-14T05:05:43.504Z,52.23
2023-05-14T05:08:12.857Z,52.08
2023-05-14T05:10:42.483Z,52.02
2023-05-14T05:13:10.654Z,51.28
2023-05-14T05:15:38.841Z,51.68
2023-05-14T05:18:11.205Z,51.60
2023-05-14T05:20:41.064Z,51.62
2023-05-14T05:23:09.840Z,50.53
2023-05-14T05:25:39.953Z,49.45
2023-05-14T05:28:08.629Z,48.47
2023-05-14T05:30:36.684Z,47.32
2023-05-14T05:33:05.022Z,47.52
2023-05-14T05:35:33.234Z,47.88
2023-05-14T05:38:02.800Z,48.27
2023-05-14T05:40:31.162Z,47.11
2023-05-14T05:42:59.567Z,46.67
2023-05-14T05:45:27.914Z,46.60
2023-05-14T05:47:56.174Z,45.24
2023-05-14T05:50:25.192Z,45.44
2023-05-14T05:52:53.669Z,45.10
2023-05-14T05:55:26.143Z,44.81
2023-05-14T05:57:57.242Z,43.48
2023-05-14T06:00:27.304Z,43.51
2023-05-14T06:02:56.412Z,44.63
2023-05-14T06:05:25.070Z,44.86
2023-05-14T06:07:56.587Z,43.90
2023-05-14T06:10:26.134Z,42.95
2023-05-14T06:12:55.236Z,42.56
2023-05-14T06:15:23.848Z,41.32
2023-05-14T06:17:53.293Z,42.24
2023-05-14T06:20:21.698Z,42.84
2023-05-14T06:22:49.942Z,42.90
2023-05-14T06:25:18.877Z,44.18
2023-05-14T06:27:48.637Z,43.09
2023-05-14T06:30:16.928Z,43.18
2023-05-14T06:32:45.476Z,44.13
2023-05-14T06:35:14.584Z,45.15
2023-05-14T06:37:43.093Z,45.55
2023-05-14T06:40:12.515Z,46.24
2023-05-14T06:42:41.203Z,47.61
2023-05-14T06:45:13.922Z,47.96
2023-05-14T06:47:44.483Z,47.05
2023-05-14T06:50:12.865Z,46.77
2023-05-14T06:52:41.558Z,47.52
2023-05-14T06:55:10.423Z,47.14
2023-05-14T06:57:40.561Z,47.17
2023-05-14T07:00:14.605Z,46.82
2023-05-14T07:02:42.720Z,48.44
2023-05-14T07:05:11.364Z,47.54
2023-05-14T07:07:41.371Z,48.38
2023-05-14T07:10:09.969Z,48.36
2023-05-14T07:12:38.477Z,49.06
2023-05-14T07:15:08.723Z,49.14
2023-05-14T07:17:54.527Z,50.39
2023-05-14T07:20:24.023Z,49.65
2023-05-14T07:22:53.387Z,49.70
2023-05-14T07:25:21.582Z,50.16
2023-05-14T07:27:52.704Z,50.03
2023-05-14T07:30:25.247Z,49.94
2023-05-14T07:32:56.639Z,48.95
2023-05-14T07:35:24.802Z,49.39
2023-05-14T07:37:54.674Z,49.56
2023-05-14T07:40:25.270Z,49.55
2023-05-14T07:42:55.201Z,49.62
2023-05-14T07:45:23.900Z,48.18
2023-05-14T07:47:52.423Z,48.10
2023-05-14T07:50:22.551Z,47.71
2023-05-14T07:52:52.109Z,47.60
2023-05-14T07:55:21.899Z,46.90
2023-05-14T07:57:50.521Z,46.74
2023-05-14T08:00:19.356Z,46.20
2023-05-14T08:02:49.323Z,45.49
2023-05-14T08:05:18.982Z,46.01
2023-05-14T08:07:51.103Z,45.31
2023-05-14T08:10:19.626Z,44.91
2023-05-14T08:12:48.019Z,44.16
2023-05-14T08:15:16.917Z,44.58
2023-05-14T08:17:45.940Z,43.87
2023-05-14T08:20:15.374Z,44.44
2023-05-14T08:22:46.022Z,44.75
2023-05-14T08:25:17.739Z,43.67
2023-05-14T08:27:46.478Z,44.36
2023-05-14T08:30:15.470Z,44.10
2023-05-14T08:32:43.940Z,41.92
2023-05-14T08:35:12.755Z,41.93
2023-05-14T08:37:41.254Z,40.86
2023-05-14T08:40:10.540Z,40.40
2023-05-14T08:42:41.887Z,38.78
2023-05-14T08:45:15.383Z,39.21
2023-05-14T08:47:46.592Z,38.08
2023-05-14T08:50:15.227Z,37.39
2023-05-14T08:52:46.317Z,38.16
2023-05-14T08:55:14.702Z,37.54
2023-05-14T08:57:44.784Z,38.54
2023-05-14T09:00:15.729Z,37.70
2023-05-14T09:02:48.956Z,38.15
2023-05-14T09:05:21.995Z,37.96
2023-05-14T09:07:50.771Z,36.96
2023-05-14T09:10:19.958Z,38.42
2023-05-14T09:12:51.669Z,38.61
2023-05-14T09:15:22.169Z,37.91
2023-05-14T09:17:51.535Z,38.35
2023-05-14T09:20:21.074Z,38.07
2023-05-14T09:22:56.753Z,35.93
2023-05-14T09:25:28.344Z,36.15
2023-05-14T09:27:59.137Z,37.66
2023-05-14T09:30:27.976Z,36.93
2023-05-14T09:32:56.651Z,36.86
2023-05-14T09:35:28.334Z,36.92
2023-05-14T09:37:57.809Z,36.21
2023-05-14T09:40:26.556Z,36.66
2023-05-14T09:42:57.316Z,36.53
2023-05-14T09:45:26.132Z,37.54
2023-05-14T09:47:54.782Z,36.90
2023-05-14T09:50:24.395Z,36.50
2023-05-14T09:52:58.822Z,36.10
2023-05-14T09:55:30.418Z,36.34
2023-05-14T09:58:01.443Z,34.99
2023-05-14T10:00:31.141Z,35.65
2023-05-14T10:03:00.218Z,35.11
2023-05-14T10:05:29.694Z,35.74
2023-05-14T10:07:58.926Z,37.42
2023-05-14T10:10:29.821Z,36.74
2023-05-14T10:13:04.520Z,37.25
2023-05-14T10:15:36.908Z,38.15
2023-05-14T10:18:12.416Z,38.15
2023-05-14T10:20:41.699Z,37.82
2023-05-14T10:23:15.380Z,37.33
2023-05-14T10:25:43.916Z,37.84
2023-05-14T10:28:15.013Z,38.57
2023-05-14T10:30:46.561Z,37.41
2023-05-14T10:33:16.855Z,36.94
2023-05-14T10:35:59.851Z,38.04
2023-05-14T10:38:29.286Z,38.24
2023-05-14T10:40:59.094Z,39.79
2023-05-14T10:43:31.013Z,41.00
2023-05-14T10:46:01.923Z,41.31
2023-05-14T10:48:32.538Z,41.58
2023-05-14T10:51:00.825Z,41.73
2023-05-14T10:53:33.817Z,42.18
2023-05-14T10:56:05.876Z,42.76
2023-05-14T10:58:39.602Z,43.05
2023-05-14T11:01:08.563Z,43.21
2023-05-14T11:03:42.342Z,43.25
2023-05-14T11:06:12.447Z,43.97
2023-05-14T11:08:41.637Z,43.00
2023-05-14T11:11:10.987Z,43.71
2023-05-14T11:13:42.005Z,43.96
2023-05-14T11:16:22.581Z,44.52
2023-05-14T11:19:02.905Z,46.66
2023-05-14T11:21:33.473Z,45.97
2023-05-14T11:24:02.492Z,45.00
2023-05-14T11:26:32.871Z,45.68
2023-05-14T11:29:02.493Z,44.49
2023-05-14T11:31:31.236Z,44.40
2023-05-14T11:34:04.297Z,44.29
2023-05-14T11:36:32.847Z,43.76
2023-05-14T11:39:02.310Z,43.71
2023-05-14T11:41:31.427Z,43.76
2023-05-14T11:44:05.312Z,43.60
2023-05-14T11:46:35.525Z,43.80
2023-05-14T11:49:05.648Z,43.58
2023-05-14T11:51:33.919Z,42.98
2023-05-14T11:54:04.319Z,42.75
2023-05-14T11:56:33.046Z,42.47
2023-05-14T11:59:02.841Z,43.09
2023-05-14T12:01:34.747Z,42.86
2023-05-14T12:04:02.860Z,42.16
2023-05-14T12:06:31.973Z,40.98
2023-05-14T12:09:01.424Z,40.73
2023-05-14T12:11:32.550Z,41.75
2023-05-14T12:14:02.432Z,41.13
2023-05-14T12:16:32.913Z,41.07
2023-05-14T12:19:03.669Z,40.35
2023-05-14T12:21:32.561Z,40.16
2023-05-14T12:24:00.956Z,40.07
2023-05-14T12:26:29.223Z,40.49
2023-05-14T12:28:59.658Z,40.25
2023-05-14T12:31:35.410Z,41.35
2023-05-14T12:34:03.968Z,41.14
2023-05-14T12:36:32.889Z,42.02
2023-05-14T12:39:03.815Z,41.53
2023-05-14T12:41:32.463Z,41.84
2023-05-14T12:44:01.640Z,42.05
2023-05-14T12:46:30.231Z,42.30
2023-05-14T12:48:59.650Z,42.67
2023-05-14T12:51:27.780Z,42.47
2023-05-14T12:53:56.177Z,42.61
2023-05-14T12:56:28.307Z,42.58
2023-05-14T12:58:57.969Z,42.85
2023-05-14T13:01:26.026Z,42.83
2023-05-14T13:03:55.657Z,43.07
2023-05-14T13:06:25.814Z,43.31
2023-05-14T13:08:56.764Z,42.38
2023-05-14T13:11:30.146Z,42.34
2023-05-14T13:13:58.567Z,42.09
2023-05-14T13:16:27.084Z,42.37
2023-05-14T13:18:55.595Z,41.81
2023-05-14T13:21:26.098Z,41.32
2023-05-14T13:23:54.374Z,41.73
2023-05-14T13:26:22.714Z,41.67
2023-05-14T13:28:51.277Z,42.02
2023-05-14T13:31:19.503Z,41.88
2023-05-14T13:33:47.950Z,41.12
2023-05-14T13:36:16.801Z,40.84
2023-05-14T13:38:47.155Z,40.71
2023-05-14T13:41:15.719Z,41.10
2023-05-14T13:43:43.960Z,39.97
2023-05-14T13:46:12.026Z,39.86
2023-05-14T13:48:40.665Z,40.16
2023-05-14T13:51:09.049Z,40.65
2023-05-14T13:53:37.581Z,40.66
2023-05-14T13:56:08.580Z,40.44
2023-05-14T13:58:37.184Z,40.49
2023-05-14T14:01:06.104Z,40.50
2023-05-14T14:03:35.840Z,40.89
2023-05-14T14:06:04.130Z,40.84
2023-05-14T14:08:32.510Z,41.66
2023-05-14T14:11:01.789Z,42.15
2023-05-14T14:13:31.622Z,41.91
2023-05-14T14:15:59.749Z,41.46
2023-05-14T14:18:27.791Z,41.72
2023-05-14T14:20:59.005Z,42.01
2023-05-14T14:23:31.051Z,42.62
2023-05-14T14:26:02.020Z,42.45
2023-05-14T14:28:32.331Z,42.03
2023-05-14T14:31:00.618Z,41.83
2023-05-14T14:33:29.335Z,42.65
2023-05-14T14:35:57.981Z,42.00
2023-05-14T14:38:29.070Z,42.43
2023-05-14T14:41:01.054Z,42.32
2023-05-14T14:43:32.273Z,42.60
2023-05-14T14:46:00.410Z,42.84
2023-05-14T14:48:39.513Z,42.54
2023-05-14T14:51:09.131Z,42.82
2023-05-14T14:53:46.040Z,43.34
2023-05-14T14:56:14.871Z,43.17
2023-05-14T14:58:50.962Z,43.48
2023-05-14T15:01:28.126Z,43.51
2023-05-14T15:04:14.193Z,43.46
2023-05-14T15:06:42.338Z,43.68
2023-05-14T15:09:10.847Z,43.84
2023-05-14T15:12:00.066Z,43.44
2023-05-14T15:14:52.259Z,43.58
2023-05-14T15:17:20.581Z,43.28
2023-05-14T15:19:52.498Z,43.68
2023-05-14T15:22:24.359Z,43.48
2023-05-14T15:24:52.486Z,43.49
2023-05-14T15:27:20.751Z,43.51
2023-05-14T15:29:48.962Z,43.27
2023-05-14T15:32:19.269Z,42.92
2023-05-14T15:34:48.083Z,42.87
2023-05-14T15:37:16.245Z,42.65
2023-05-14T15:39:44.617Z,43.28
2023-05-14T15:42:12.814Z,43.20
2023-05-14T15:44:42.746Z,43.13
2023-05-14T15:47:12.923Z,43.11
2023-05-14T15:49:43.037Z,43.13
2023-05-14T15:54:54.320Z,42.77
2023-05-14T15:57:22.574Z,42.99
2023-05-14T15:59:51.439Z,42.88
2023-05-14T16:02:21.642Z,43.14
2023-05-14T16:04:51.494Z,43.24
2023-05-14T16:07:19.610Z,43.00
2023-05-14T16:09:48.048Z,42.55
2023-05-14T16:12:16.275Z,42.18
2023-05-14T16:14:45.298Z,42.62
2023-05-14T16:17:14.402Z,41.54
2023-05-14T16:19:43.242Z,42.15
2023-05-14T16:22:15.508Z,41.47
2023-05-14T16:24:44.810Z,41.86
2023-05-14T16:27:13.190Z,42.25
2023-05-14T16:29:41.799Z,41.53
2023-05-14T16:32:10.571Z,40.86
2023-05-14T16:34:40.620Z,41.41
2023-05-14T16:37:11.951Z,40.94
2023-05-14T16:39:44.839Z,40.75
2023-05-14T16:42:15.240Z,41.06
2023-05-14T16:44:44.061Z,41.32
2023-05-14T16:47:17.697Z,41.34
2023-05-14T16:49:46.854Z,41.71
2023-05-14T16:52:14.942Z,41.37
2023-05-14T16:54:48.157Z,41.44
2023-05-14T16:57:17.549Z,42.01
2023-05-14T16:59:46.442Z,42.30
2023-05-14T17:02:14.636Z,42.61
2023-05-14T17:04:43.591Z,42.50
2023-05-14T17:07:12.358Z,42.61
2023-05-14T17:09:44.881Z,42.76
2023-05-14T17:12:14.590Z,43.07
2023-05-14T17:14:42.577Z,43.51
2023-05-14T17:17:11.964Z,43.09
2023-05-14T17:19:42.688Z,43.48
2023-05-14T17:22:11.158Z,43.56
2023-05-14T17:24:39.853Z,43.55
2023-05-14T17:27:10.889Z,43.40
2023-05-14T17:29:40.260Z,43.57
2023-05-14T17:32:12.174Z,43.73
2023-05-14T17:34:40.763Z,43.70
2023-05-14T17:37:09.569Z,44.12
2023-05-14T17:39:38.650Z,44.42
2023-05-14T17:42:09.991Z,44.69
2023-05-14T17:44:38.023Z,44.79
2023-05-14T17:47:07.508Z,45.13
2023-05-14T17:49:35.868Z,45.47
2023-05-14T17:52:05.494Z,45.93
2023-05-14T17:54:34.897Z,46.20
2023-05-14T17:57:03.296Z,46.44
2023-05-14T17:59:34.869Z,46.63
2023-05-14T18:02:03.313Z,46.96
2023-05-14T18:04:31.442Z,47.27
2023-05-14T18:07:01.110Z,47.03
2023-05-14T18:09:29.424Z,47.27
2023-05-14T18:11:58.360Z,47.50
2023-05-14T18:14:26.620Z,47.67
2023-05-14T18:16:56.853Z,48.31
2023-05-14T18:19:24.965Z,48.61
2023-05-14T18:21:55.476Z,48.65
2023-05-14T18:24:24.225Z,48.88
2023-05-14T18:26:52.677Z,49.21
2023-05-14T18:29:21.385Z,49.61
2023-05-14T18:31:49.866Z,50.19
2023-05-14T18:34:22.119Z,50.24
2023-05-14T18:36:50.995Z,50.70
2023-05-14T18:39:19.345Z,50.68
2023-05-14T18:41:48.411Z,51.95
2023-05-14T18:44:16.363Z,51.76
2023-05-14T18:46:45.243Z,51.58
2023-05-14T18:49:14.645Z,52.04
2023-05-14T18:51:44.356Z,52.16
2023-05-14T18:54:12.472Z,52.21
2023-05-14T18:56:46.733Z,52.37
2023-05-14T18:59:15.634Z,52.31
2023-05-14T19:01:43.838Z,52.83
2023-05-14T19:04:14.069Z,53.26
2023-05-14T19:06:45.112Z,53.40
2023-05-14T19:09:14.945Z,53.81
2023-05-14T19:11:43.188Z,54.10
2023-05-14T19:14:14.205Z,54.56
2023-05-14T19:16:43.213Z,54.82
2023-05-14T19:19:11.967Z,55.20
2023-05-14T19:21:40.091Z,55.41
2023-05-14T19:24:10.342Z,55.57
2023-05-14T19:26:42.416Z,56.16
2023-05-14T19:29:10.581Z,56.81
2023-05-14T19:31:40.017Z,57.45
2023-05-14T19:34:09.903Z,56.92
2023-05-14T19:36:37.970Z,57.53
2023-05-14T19:39:06.150Z,58.45
2023-05-14T19:41:35.859Z,58.58
2023-05-14T19:44:04.351Z,58.71
2023-05-14T19:46:32.497Z,58.30
2023-05-14T19:49:00.989Z,58.16
2023-05-14T19:51:29.013Z,58.95
2023-05-14T19:53:58.638Z,58.94
2023-05-14T19:56:28.493Z,59.36
2023-05-14T19:59:02.196Z,60.44
2023-05-14T20:01:30.439Z,60.22
2023-05-14T20:03:58.611Z,61.13
2023-05-14T20:06:29.017Z,62.15
2023-05-14T20:08:57.638Z,62.97
2023-05-14T20:11:26.602Z,63.03
2023-05-14T20:13:55.644Z,63.50
2023-05-14T20:16:25.345Z,63.85
2023-05-14T20:18:54.688Z,64.08
2023-05-14T20:21:25.295Z,64.56
2023-05-14T20:23:54.410Z,64.27
2023-05-14T20:26:23.646Z,64.76
2023-05-14T20:28:51.872Z,65.35
2023-05-14T20:31:21.530Z,65.53
2023-05-14T20:33:54.606Z,66.49
2023-05-14T20:36:25.689Z,66.68
2023-05-14T20:38:53.802Z,67.08
2023-05-14T20:41:22.749Z,68.09
2023-05-14T20:43:50.981Z,68.73
2023-05-14T20:46:19.835Z,68.50
2023-05-14T20:48:51.925Z,68.58
2023-05-14T20:51:21.969Z,68.85
2023-05-14T20:53:50.386Z,69.03
2023-05-14T20:56:19.251Z,68.80
2023-05-14T20:58:47.695Z,69.04
2023-05-14T21:01:16.182Z,70.36
2023-05-14T21:03:44.789Z,70.97
2023-05-14T21:06:13.776Z,71.18
2023-05-14T21:08:43.236Z,70.17
2023-05-14T21:11:11.376Z,70.20
2023-05-14T21:13:39.626Z,69.99
2023-05-14T21:16:11.889Z,70.20
2023-05-14T21:18:41.762Z,70.59
2023-05-14T21:21:10.037Z,70.33
2023-05-14T21:23:38.097Z,70.58
2023-05-14T21:26:08.470Z,70.64
2023-05-14T21:28:37.643Z,70.61
2023-05-14T21:31:06.078Z,70.15
2023-05-14T21:33:34.354Z,70.15
2023-05-14T21:36:04.903Z,70.30
2023-05-14T21:38:33.123Z,70.30
2023-05-14T21:41:03.137Z,70.37
2023-05-14T21:43:32.613Z,70.30
2023-05-14T21:46:02.220Z,70.40
2023-05-14T21:48:30.277Z,70.68
2023-05-14T21:50:58.504Z,70.71
2023-05-14T21:53:26.790Z,71.53
2023-05-14T21:55:56.393Z,72.04
2023-05-14T21:58:25.160Z,71.69
2023-05-14T22:00:55.327Z,71.69
2023-05-14T22:03:23.486Z,71.78
2023-05-14T22:05:51.822Z,71.82
2023-05-14T22:08:20.745Z,72.17
2023-05-14T22:10:49.110Z,72.33
2023-05-14T22:13:17.895Z,73.00
2023-05-14T22:15:46.773Z,73.34
2023-05-14T22:18:19.335Z,73.60
2023-05-14T22:20:48.039Z,73.50
2023-05-14T22:23:16.410Z,73.25
2023-05-14T22:25:44.827Z,73.81
2023-05-14T22:28:13.390Z,74.86
2023-05-14T22:30:41.495Z,75.23
2023-05-14T22:33:11.790Z,75.28
2023-05-14T22:35:43.881Z,75.83
2023-05-14T22:38:13.276Z,76.02
2023-05-14T22:40:41.620Z,76.12
2023-05-14T22:43:10.501Z,75.81
2023-05-14T22:45:38.604Z,75.82
2023-05-14T22:48:07.183Z,76.11
2023-05-14T22:50:35.309Z,76.33
2023-05-14T22:53:05.641Z,76.58
2023-05-14T22:55:34.075Z,76.89
2023-05-14T22:58:02.743Z,77.31
2023-05-14T23:00:30.890Z,77.54
2023-05-14T23:02:59.866Z,77.52
2023-05-14T23:05:29.629Z,77.57
2023-05-14T23:07:57.952Z,77.65
2023-05-14T23:10:35.298Z,77.64
2023-05-14T23:13:04.588Z,77.97
2023-05-14T23:15:36.707Z,78.22
2023-05-14T23:18:04.969Z,78.34
2023-05-14T23:20:33.576Z,78.94
2023-05-14T23:23:01.578Z,79.29
2023-05-14T23:25:33.218Z,79.53
2023-05-14T23:28:01.777Z,79.34
2023-05-14T23:30:31.441Z,79.44
2023-05-14T23:33:00.706Z,79.49
2023-05-14T23:35:28.962Z,79.62
2023-05-14T23:37:58.168Z,79.76
2023-05-14T23:40:26.326Z,79.85
2023-05-14T23:42:56.164Z,80.13
2023-05-14T23:45:24.463Z,80.16
2023-05-14T23:47:52.787Z,80.49
2023-05-14T23:50:21.574Z,80.87
2023-05-14T23:52:50.447Z,81.00
2023-05-14T23:55:18.954Z,80.87
2023-05-14T23:57:49.593Z,81.08
